LOWWLGSY

Guest
Details From LOWW - Wien Schwechat
To LGSY - Skiros
Flight Number -
Tags Generated
Created
Modified
Stats Distance 648 nm / 1,199 km
Max Altitude 0 ft / 0 m
Waypoints 4
Social Downloads 0
Likes 0
Share VATSIM

Download

Looking for another format? Having issues loading an existing format? Contact us
Advertisement - Login to hide

Notes

Generated

Route

LOWW VTN SKS LGSY

ID Type Via Altitude Latitude Longitude Leg Dist Tot Dist Heading (true) Name
O LOWW APT - 0 ft / 0 m 48.11978˚ 16.57818˚ - 0 nm - -
VTN NDB - 0 ft / 0 m 43.71758˚ 20.81033˚ 317 nm 317 nm 145° / 148° KRALJEVO NDB
SKS VOR - 0 ft / 0 m 38.97738˚ 24.49012˚ 329 nm 647 nm 149° / 151° SKIROS VOR-DME
O LGSY APT - 0 ft / 0 m 38.98103˚ 24.48596˚ 0 nm 647 nm 318° / 318° -

Altitude Profile

Advertisement - Login to hide

Weather


0- 5 10 15 20 25 30 35+ Temperature / ° C

Clouds and Precipitation
Forecast for 2017-12-18 12:00 UTC. Updated 9 minutes ago

Ground ~20,000 ft ~40,000 ft Winds

LOWW

Details ICAO LOWW (VIE)
Name Wien Schwechat
Region Austria
Timezone Europe/Vienna (UTC+1.0)
Stats Elevation 600 ft / 183 m (AMSL)
Location 48.110068° 16.569637°
Runways 2
Magnetic Variation 4.258° E

METAR

LOWW 180650Z 30009KT 9999 FEW018 M01/M04 Q1023 R88/15//95 NOSIG

Decode

TAF

TAF LOWW 180515Z 1806/1912 32008KT 9999 FEW030 TX02/1812Z TNM05/1904Z TEMPO 1806/1816 BKN040

Decode

Departure Runways

ID Width Length Bearing (true) Bearing (mag) Surface Threshold Offset Overrun Length
11 148 ft / 45 m 11,457 ft / 3,492 m 115.99° 111.73° Asphalt 0 ft / 0 m 0 ft / 0 m
16 148 ft / 45 m 11,811 ft / 3,600 m 164.23° 159.97° Asphalt 0 ft / 0 m 33 ft / 10 m
29 148 ft / 45 m 11,457 ft / 3,492 m 296.03° 291.77° Asphalt 0 ft / 0 m 0 ft / 0 m
34 148 ft / 45 m 11,811 ft / 3,600 m 344.24° 339.98° Asphalt 0 ft / 0 m 0 ft / 0 m

LGSY

Details ICAO LGSY (SKU)
Name SKIROS
Region Greece
Timezone Europe/Athens (UTC+2.0)
Stats Elevation 44 ft / 13 m (AMSL)
Location 38.967554° 24.487226°
Runways 1
Magnetic Variation 4.658° E

METAR

LGSY 180650Z 00000KT 9999 FEW025 09/07 Q1015 RMK SCT080 BKN200 BLU

Decode

TAF

Not found

Destination Runways

ID Width Length Bearing (true) Bearing (mag) Surface Threshold Offset Overrun Length
18 98 ft / 30 m 9,864 ft / 3,006 m 175.81° 171.15° Asphalt 541 ft / 165 m 956 ft / 291 m
36 98 ft / 30 m 9,864 ft / 3,006 m 355.81° 351.15° Asphalt 2,625 ft / 800 m 890 ft / 271 m